createdAt,value
2017-10-26T00:00:19.204Z,14.27
2017-10-26T00:02:47.856Z,11.57
2017-10-26T00:05:15.386Z,15.17
2017-10-26T00:07:42.870Z,14.80
2017-10-26T00:10:10.412Z,12.10
2017-10-26T00:12:38.803Z,12.03
2017-10-26T00:15:07.181Z,13.38
2017-10-26T00:17:35.543Z,14.90
2017-10-26T00:20:03.826Z,13.17
2017-10-26T00:22:32.065Z,15.00
2017-10-26T00:24:59.559Z,14.10
2017-10-26T00:27:27.820Z,12.10
2017-10-26T00:29:56.116Z,11.50
2017-10-26T00:32:24.364Z,12.50
2017-10-26T00:34:51.863Z,12.50
2017-10-26T00:37:19.343Z,12.60
2017-10-26T00:39:46.831Z,12.40
2017-10-26T00:42:14.327Z,12.37
2017-10-26T00:44:42.576Z,13.17
2017-10-26T00:47:10.054Z,12.47
2017-10-26T00:49:38.167Z,13.60
2017-10-26T00:52:05.688Z,12.93
2017-10-26T00:54:33.935Z,11.83
2017-10-26T00:57:01.432Z,15.87
2017-10-26T00:59:29.676Z,11.33
2017-10-26T01:01:57.161Z,15.20
2017-10-26T01:04:25.414Z,13.00
2017-10-26T01:06:53.660Z,12.50
2017-10-26T01:09:21.142Z,13.50
2017-10-26T01:11:50.274Z,13.30
2017-10-26T01:14:17.884Z,14.03
2017-10-26T01:16:45.388Z,11.47
2017-10-26T01:19:12.875Z,13.10
2017-10-26T01:21:40.360Z,21.60
2017-10-26T01:24:07.835Z,16.67
2017-10-26T01:26:35.327Z,14.40
2017-10-26T01:29:03.579Z,15.30
2017-10-26T01:31:32.591Z,15.13
2017-10-26T01:34:00.867Z,15.70
2017-10-26T01:36:29.107Z,17.73
2017-10-26T01:38:56.599Z,13.50
2017-10-26T01:41:24.856Z,15.50
2017-10-26T01:43:52.331Z,13.37
2017-10-26T01:46:20.587Z,13.70
2017-10-26T01:48:48.078Z,13.50
2017-10-26T01:51:16.332Z,13.97
2017-10-26T01:53:43.808Z,13.10
2017-10-26T01:56:12.072Z,11.73
2017-10-26T01:58:41.238Z,12.43
2017-10-26T02:01:08.721Z,14.53
2017-10-26T02:03:36.292Z,17.83
2017-10-26T02:06:04.672Z,14.40
2017-10-26T02:08:32.918Z,14.67
2017-10-26T02:11:00.412Z,13.53
2017-10-26T02:13:28.668Z,13.73
2017-10-26T02:15:56.238Z,17.07
2017-10-26T02:18:24.499Z,12.00
2017-10-26T02:20:52.744Z,15.30
2017-10-26T02:23:20.227Z,13.43
2017-10-26T02:25:47.720Z,16.60
2017-10-26T02:28:20.942Z,12.50
2017-10-26T02:44:18.972Z,15.43
2017-10-26T02:46:47.229Z,17.23
2017-10-26T02:49:14.711Z,15.70
2017-10-26T02:51:42.633Z,13.40
2017-10-26T02:54:10.232Z,13.90
2017-10-26T02:56:37.786Z,14.50
2017-10-26T02:59:06.063Z,13.50
2017-10-26T03:01:34.313Z,19.20
2017-10-26T03:04:01.909Z,17.37
2017-10-26T03:06:30.164Z,17.80
2017-10-26T03:08:57.750Z,22.13
2017-10-26T03:11:26.001Z,24.03
2017-10-26T03:13:53.566Z,17.40
2017-10-26T03:16:21.824Z,19.40
2017-10-26T03:18:49.312Z,19.40
2017-10-26T03:21:17.587Z,18.43
2017-10-26T03:23:46.168Z,18.20
2017-10-26T03:26:15.206Z,18.97
2017-10-26T03:28:42.700Z,16.30
2017-10-26T03:31:10.188Z,16.90
2017-10-26T03:33:38.458Z,15.10
2017-10-26T03:36:06.740Z,14.63
2017-10-26T03:38:34.993Z,16.10
2017-10-26T03:41:02.490Z,13.10
2017-10-26T03:43:30.027Z,11.87
2017-10-26T03:45:58.275Z,12.10
2017-10-26T03:48:25.807Z,12.53
2017-10-26T03:50:53.366Z,12.77
2017-10-26T03:53:20.847Z,13.57
2017-10-26T03:55:48.322Z,9.77
2017-10-26T03:58:15.906Z,10.70
2017-10-26T04:00:44.150Z,11.27
2017-10-26T04:03:11.637Z,12.90
2017-10-26T04:05:39.905Z,11.93
2017-10-26T04:08:07.388Z,12.53
2017-10-26T04:10:34.871Z,12.70
2017-10-26T04:13:02.388Z,11.53
2017-10-26T04:15:30.663Z,11.40
2017-10-26T04:17:58.906Z,13.83
2017-10-26T04:20:26.390Z,13.70
2017-10-26T04:22:55.276Z,12.97
2017-10-26T04:25:22.761Z,10.77
2017-10-26T04:27:50.256Z,12.67
2017-10-26T04:30:17.740Z,11.93
2017-10-26T04:32:45.229Z,11.63
2017-10-26T04:35:13.498Z,16.00
2017-10-26T04:37:41.753Z,11.90
2017-10-26T04:40:09.231Z,12.47
2017-10-26T04:42:37.514Z,13.13
2017-10-26T04:45:05.753Z,11.03
2017-10-26T04:47:33.236Z,11.30
2017-10-26T04:50:01.503Z,11.10
2017-10-26T04:52:29.018Z,11.17
2017-10-26T04:54:56.546Z,11.33
2017-10-26T04:57:24.804Z,13.00
2017-10-26T04:59:52.284Z,12.40
2017-10-26T05:02:20.549Z,11.97
2017-10-26T05:04:49.131Z,11.93
2017-10-26T05:07:18.307Z,13.90
2017-10-26T05:09:45.787Z,13.63
2017-10-26T05:12:14.063Z,13.97
2017-10-26T05:14:42.946Z,13.57
2017-10-26T05:17:11.204Z,21.43
2017-10-26T05:19:38.697Z,13.07
2017-10-26T05:22:06.971Z,12.43
2017-10-26T05:24:35.249Z,12.40
2017-10-26T05:27:03.516Z,11.80
2017-10-26T05:29:31.783Z,13.77
2017-10-26T05:31:59.278Z,10.87
2017-10-26T05:34:26.804Z,14.67
2017-10-26T05:36:54.380Z,15.13
2017-10-26T05:39:22.634Z,12.80
2017-10-26T05:41:50.122Z,13.57
2017-10-26T05:44:17.611Z,13.00
2017-10-26T05:46:45.224Z,14.53
2017-10-26T05:49:13.547Z,13.37
2017-10-26T05:51:41.027Z,13.30
2017-10-26T05:54:08.513Z,14.20
2017-10-26T05:56:37.085Z,14.20
2017-10-26T05:59:04.599Z,13.30
2017-10-26T06:01:32.128Z,15.77
2017-10-26T06:04:00.382Z,15.13
2017-10-26T06:06:28.711Z,14.87
2017-10-26T06:08:56.207Z,13.53
2017-10-26T06:11:23.729Z,12.83
2017-10-26T06:13:52.145Z,13.13
2017-10-26T06:16:19.663Z,14.20
2017-10-26T06:18:47.158Z,12.47
2017-10-26T06:21:14.645Z,15.30
2017-10-26T06:23:42.903Z,17.33
2017-10-26T06:26:10.401Z,19.60
2017-10-26T06:28:37.884Z,17.07
2017-10-26T06:31:05.407Z,16.03
2017-10-26T06:33:33.672Z,15.90
2017-10-26T06:36:01.919Z,13.70
2017-10-26T06:38:29.402Z,13.93
2017-10-26T06:40:57.662Z,12.90
2017-10-26T06:43:25.144Z,18.07
2017-10-26T06:45:53.396Z,15.53
2017-10-26T06:48:20.895Z,14.17
2017-10-26T06:50:48.375Z,17.87
2017-10-26T06:53:15.849Z,12.63
2017-10-26T06:55:43.356Z,18.03
2017-10-26T06:58:11.607Z,14.60
2017-10-26T07:00:39.083Z,13.53
2017-10-26T07:03:07.378Z,14.43
2017-10-26T07:05:34.855Z,13.73
2017-10-26T07:08:02.334Z,13.70
2017-10-26T07:10:29.868Z,15.10
2017-10-26T07:12:57.395Z,21.47
2017-10-26T07:15:25.678Z,19.30
2017-10-26T07:17:54.034Z,21.07
2017-10-26T07:20:21.522Z,17.90
2017-10-26T07:22:49.033Z,20.87
2017-10-26T07:25:16.538Z,26.40
2017-10-26T07:27:44.806Z,20.27
2017-10-26T07:30:13.056Z,18.20
2017-10-26T07:32:40.558Z,22.30
2017-10-26T07:35:08.108Z,32.60
2017-10-26T07:37:35.656Z,27.37
2017-10-26T07:40:03.960Z,26.10
2017-10-26T07:42:31.444Z,27.60
2017-10-26T07:44:58.960Z,28.17
2017-10-26T07:47:27.225Z,23.47
2017-10-26T07:49:55.480Z,23.00
2017-10-26T07:52:22.963Z,25.60
2017-10-26T07:54:51.241Z,23.43
2017-10-26T07:57:19.496Z,22.20
2017-10-26T07:59:46.975Z,28.40
2017-10-26T08:02:15.249Z,28.93
2017-10-26T08:04:43.514Z,29.90
2017-10-26T08:07:10.995Z,26.07
2017-10-26T08:09:39.267Z,25.03
2017-10-26T08:12:07.511Z,28.13
2017-10-26T08:14:34.995Z,28.20
2017-10-26T08:17:03.261Z,24.53
2017-10-26T08:19:30.831Z,29.40
2017-10-26T08:21:59.078Z,25.50
2017-10-26T08:24:26.600Z,30.83
2017-10-26T08:26:54.083Z,32.53
2017-10-26T08:29:21.563Z,29.87
2017-10-26T08:31:49.068Z,26.03
2017-10-26T08:34:16.550Z,31.77
2017-10-26T08:36:44.079Z,30.93
2017-10-26T08:39:11.629Z,23.93
2017-10-26T08:41:39.899Z,25.73
2017-10-26T08:44:08.163Z,28.20
2017-10-26T08:46:36.436Z,28.07
2017-10-26T08:49:04.684Z,31.30
2017-10-26T08:51:32.171Z,36.53
2017-10-26T08:53:59.735Z,33.60
2017-10-26T08:56:27.215Z,33.13
2017-10-26T08:58:56.195Z,40.10
2017-10-26T09:01:25.427Z,29.23
2017-10-26T09:03:52.915Z,29.90
2017-10-26T09:06:20.404Z,36.10
2017-10-26T09:08:48.678Z,40.50
2017-10-26T09:11:16.249Z,34.73
2017-10-26T09:13:44.499Z,34.07
2017-10-26T09:16:12.368Z,35.93
2017-10-26T09:18:39.911Z,40.75
2017-10-26T09:21:07.387Z,35.80
2017-10-26T09:23:34.880Z,29.93
2017-10-26T09:26:03.131Z,33.80
2017-10-26T09:28:30.697Z,36.90
2017-10-26T09:30:58.989Z,30.17
2017-10-26T09:33:33.054Z,29.93
2017-10-26T09:36:00.557Z,28.60
2017-10-26T09:38:28.812Z,28.53
2017-10-26T09:40:56.315Z,28.17
2017-10-26T09:43:23.849Z,27.80
2017-10-26T09:45:52.132Z,31.57
2017-10-26T09:48:20.398Z,30.27
2017-10-26T09:50:48.659Z,33.70
2017-10-26T09:53:16.151Z,31.67
2017-10-26T09:55:43.636Z,26.80
2017-10-26T09:58:11.147Z,24.77
2017-10-26T10:00:39.423Z,26.63
2017-10-26T10:03:07.715Z,31.77
2017-10-26T10:05:35.976Z,25.03
2017-10-26T10:08:04.251Z,27.87
2017-10-26T10:10:32.509Z,26.27
2017-10-26T10:13:00.016Z,37.37
2017-10-26T10:15:27.551Z,30.60
2017-10-26T10:17:56.728Z,31.00
2017-10-26T10:20:24.233Z,30.57
2017-10-26T10:22:51.717Z,30.43
2017-10-26T10:25:19.228Z,32.10
2017-10-26T10:27:47.502Z,28.40
2017-10-26T10:30:15.779Z,25.23
2017-10-26T10:32:44.029Z,24.37
2017-10-26T10:35:11.614Z,24.77
2017-10-26T10:37:39.873Z,24.50
2017-10-26T10:40:07.451Z,23.97
2017-10-26T10:42:35.710Z,24.30
2017-10-26T10:45:03.301Z,23.37
2017-10-26T10:47:31.092Z,21.93
2017-10-26T10:49:58.615Z,26.23
2017-10-26T10:52:27.271Z,23.87
2017-10-26T10:54:54.763Z,22.57
2017-10-26T10:57:23.033Z,27.20
2017-10-26T11:13:15.929Z,19.27
2017-10-26T11:15:43.414Z,23.30
2017-10-26T11:18:10.896Z,22.20
2017-10-26T11:20:39.270Z,25.33
2017-10-26T11:23:07.528Z,21.63
2017-10-26T11:25:35.006Z,24.90
2017-10-26T11:28:03.262Z,22.83
2017-10-26T11:30:30.744Z,23.73
2017-10-26T11:32:59.114Z,24.43
2017-10-26T11:35:26.947Z,25.58
2017-10-26T11:37:54.444Z,26.30
2017-10-26T11:40:22.735Z,24.37
2017-10-26T11:42:50.232Z,28.10
2017-10-26T11:45:17.768Z,28.40
2017-10-26T11:47:45.256Z,25.03
2017-10-26T11:50:12.751Z,24.27
2017-10-26T11:52:41.028Z,25.47
2017-10-26T11:55:09.280Z,30.27
2017-10-26T11:57:36.775Z,28.07
2017-10-26T12:00:04.258Z,30.63
2017-10-26T12:02:31.775Z,30.07
2017-10-26T12:04:59.267Z,31.00
2017-10-26T12:07:28.015Z,31.97
2017-10-26T12:09:55.499Z,30.00
2017-10-26T12:12:23.775Z,24.67
2017-10-26T12:14:52.031Z,25.57
2017-10-26T12:17:19.515Z,28.77
2017-10-26T12:19:47.015Z,28.27
2017-10-26T12:22:14.505Z,24.40
2017-10-26T12:24:42.795Z,22.97
2017-10-26T12:27:11.057Z,21.63
2017-10-26T12:29:39.319Z,25.50
2017-10-26T12:32:06.800Z,25.47
2017-10-26T12:34:35.066Z,29.30
2017-10-26T12:37:02.571Z,36.20
2017-10-26T12:39:30.070Z,32.70
2017-10-26T12:41:58.454Z,31.83
2017-10-26T12:44:25.936Z,27.97
2017-10-26T12:46:54.194Z,22.50
2017-10-26T12:49:22.466Z,22.97
2017-10-26T12:51:49.958Z,22.23
2017-10-26T12:54:17.622Z,24.17
2017-10-26T12:56:45.168Z,21.43
2017-10-26T12:59:13.417Z,21.80
2017-10-26T13:01:40.922Z,21.07
2017-10-26T13:04:08.416Z,20.27
2017-10-26T13:06:35.899Z,24.30
2017-10-26T13:09:03.387Z,19.03
2017-10-26T13:11:30.939Z,19.63
2017-10-26T13:13:59.195Z,25.30
2017-10-26T13:16:26.677Z,24.33
2017-10-26T13:18:54.935Z,20.97
2017-10-26T13:21:22.419Z,24.57
2017-10-26T13:23:49.899Z,21.57
2017-10-26T13:26:17.398Z,24.70
2017-10-26T13:28:44.877Z,23.30
2017-10-26T13:31:13.123Z,23.00
2017-10-26T13:33:40.623Z,25.87
2017-10-26T13:36:08.171Z,22.27
2017-10-26T13:38:36.419Z,25.63
2017-10-26T13:41:03.915Z,24.30
2017-10-26T13:43:32.158Z,28.73
2017-10-26T13:45:59.743Z,26.30
2017-10-26T13:48:28.940Z,22.40
2017-10-26T13:50:57.182Z,24.13
2017-10-26T13:53:24.774Z,25.87
2017-10-26T13:55:53.050Z,23.80
2017-10-26T13:58:21.335Z,25.97
2017-10-26T14:00:49.585Z,24.43
2017-10-26T14:03:17.085Z,23.87
2017-10-26T14:05:44.570Z,27.80
2017-10-26T14:08:12.052Z,23.73
2017-10-26T14:10:39.648Z,21.97
2017-10-26T14:13:07.924Z,24.93
2017-10-26T14:15:36.196Z,26.20
2017-10-26T14:18:04.452Z,35.50
2017-10-26T14:20:31.935Z,25.13
2017-10-26T14:23:00.211Z,25.50
2017-10-26T14:25:29.425Z,25.50
2017-10-26T14:27:57.067Z,23.87
2017-10-26T14:30:25.311Z,30.07
2017-10-26T14:32:52.799Z,26.87
2017-10-26T14:35:21.051Z,29.70
2017-10-26T14:37:48.531Z,26.80
2017-10-26T14:40:16.092Z,31.70
2017-10-26T14:42:44.375Z,26.77
2017-10-26T14:45:12.647Z,27.47
2017-10-26T14:47:40.931Z,24.00
2017-10-26T14:50:09.183Z,28.50
2017-10-26T14:52:36.677Z,29.50
2017-10-26T14:55:04.167Z,27.43
2017-10-26T14:57:31.674Z,29.30
2017-10-26T15:00:00.338Z,28.70
2017-10-26T15:02:27.832Z,34.77
2017-10-26T15:04:55.325Z,36.43
2017-10-26T15:07:22.842Z,33.97
2017-10-26T15:09:51.108Z,31.83
2017-10-26T15:12:19.632Z,31.17
2017-10-26T15:14:47.128Z,28.73
2017-10-26T15:17:14.622Z,26.57
2017-10-26T15:19:42.871Z,31.60
2017-10-26T15:22:10.361Z,38.30
2017-10-26T15:24:37.879Z,32.63
2017-10-26T15:27:05.367Z,34.47
2017-10-26T15:29:32.882Z,33.80
2017-10-26T15:32:00.375Z,31.03
2017-10-26T15:34:28.627Z,35.77
2017-10-26T15:36:56.119Z,37.67
2017-10-26T15:39:24.375Z,35.60
2017-10-26T15:41:51.968Z,40.37
2017-10-26T15:44:19.451Z,39.53
2017-10-26T15:46:46.947Z,39.27
2017-10-26T15:49:14.431Z,43.30
2017-10-26T15:51:42.698Z,39.53
2017-10-26T15:54:10.960Z,41.10
2017-10-26T15:56:38.539Z,228.77
2017-10-26T15:59:06.107Z,96.43
2017-10-26T16:01:34.371Z,50.83
2017-10-26T16:04:02.636Z,42.00
2017-10-26T16:06:31.424Z,42.10
2017-10-26T16:08:58.914Z,45.30
2017-10-26T16:11:26.424Z,47.00
2017-10-26T16:13:53.901Z,44.37
2017-10-26T16:16:21.433Z,42.47
2017-10-26T16:18:48.924Z,47.33
2017-10-26T16:21:17.175Z,49.77
2017-10-26T16:23:44.768Z,48.10
2017-10-26T16:26:13.019Z,66.10
2017-10-26T16:28:40.516Z,57.63
2017-10-26T16:31:08.861Z,56.47
2017-10-26T16:33:36.352Z,53.53
2017-10-26T16:36:03.843Z,55.97
2017-10-26T16:38:31.355Z,52.13
2017-10-26T16:40:59.631Z,63.77
2017-10-26T16:43:27.119Z,55.67
2017-10-26T16:45:54.619Z,55.83
2017-10-26T16:48:22.187Z,57.13
2017-10-26T16:50:49.670Z,107.10
2017-10-26T16:53:17.937Z,86.83
2017-10-26T16:55:46.228Z,77.80
2017-10-26T16:58:13.720Z,79.03
2017-10-26T17:00:41.223Z,67.17
2017-10-26T17:03:08.706Z,63.73
2017-10-26T17:05:36.205Z,55.00
2017-10-26T17:08:03.704Z,60.93
2017-10-26T17:10:31.735Z,65.17
2017-10-26T17:12:59.220Z,68.07
2017-10-26T17:15:26.730Z,67.17
2017-10-26T17:17:54.218Z,65.83
2017-10-26T17:20:21.703Z,57.77
2017-10-26T17:22:49.221Z,71.87
2017-10-26T17:25:16.701Z,60.03
2017-10-26T17:27:44.339Z,64.80
2017-10-26T17:30:11.839Z,54.87
2017-10-26T17:32:39.355Z,60.77
2017-10-26T17:35:06.870Z,70.17
2017-10-26T17:37:35.130Z,65.03
2017-10-26T17:40:04.124Z,70.17
2017-10-26T17:42:33.475Z,75.33
2017-10-26T17:45:01.065Z,67.13
2017-10-26T17:47:28.588Z,75.80
2017-10-26T17:49:56.066Z,80.43
2017-10-26T17:52:23.751Z,70.27
2017-10-26T17:54:51.242Z,64.43
2017-10-26T17:57:19.538Z,64.40
2017-10-26T17:59:47.032Z,83.80
2017-10-26T18:02:14.664Z,72.50
2017-10-26T18:04:42.156Z,74.43
2017-10-26T18:07:09.768Z,65.10
2017-10-26T18:09:38.014Z,73.77
2017-10-26T18:12:05.512Z,72.07
2017-10-26T18:14:33.852Z,85.13
2017-10-26T18:17:01.432Z,79.90
2017-10-26T18:19:29.688Z,72.57
2017-10-26T18:21:57.188Z,76.23
2017-10-26T18:24:24.856Z,66.70
2017-10-26T18:26:52.343Z,87.70
2017-10-26T18:29:19.883Z,111.83
2017-10-26T18:31:47.363Z,99.27
2017-10-26T18:34:14.847Z,97.90
2017-10-26T18:36:42.367Z,85.17
2017-10-26T18:39:09.860Z,92.03
2017-10-26T18:41:37.483Z,90.60
2017-10-26T18:44:05.001Z,88.37
2017-10-26T18:46:34.181Z,87.33
2017-10-26T18:49:01.699Z,100.23
2017-10-26T18:51:29.207Z,80.93
2017-10-26T18:53:57.495Z,80.50
2017-10-26T18:56:25.790Z,96.50
2017-10-26T18:58:53.297Z,109.13
2017-10-26T19:01:20.775Z,96.77
2017-10-26T19:03:49.042Z,105.23
2017-10-26T19:06:17.374Z,91.40
2017-10-26T19:08:44.857Z,94.93
2017-10-26T19:11:12.546Z,98.10
2017-10-26T19:13:40.126Z,102.47
2017-10-26T19:16:08.422Z,101.63
2017-10-26T19:18:35.964Z,108.03
2017-10-26T19:21:05.160Z,91.27
2017-10-26T19:23:33.420Z,80.00
2017-10-26T19:26:00.992Z,74.40
2017-10-26T19:28:29.263Z,89.93
2017-10-26T19:30:57.507Z,73.70
2017-10-26T19:33:24.995Z,73.47
2017-10-26T19:35:53.331Z,104.30
2017-10-26T19:38:21.458Z,94.57
2017-10-26T19:40:49.007Z,71.13
2017-10-26T19:43:17.295Z,69.50
2017-10-26T19:45:45.535Z,69.80
2017-10-26T19:48:13.019Z,81.10
2017-10-26T19:50:41.287Z,89.50
2017-10-26T19:53:08.773Z,81.23
2017-10-26T19:55:36.250Z,78.33
2017-10-26T19:58:03.855Z,80.50
2017-10-26T20:00:31.349Z,108.90
2017-10-26T20:02:58.896Z,160.73
2017-10-26T20:05:27.159Z,98.23
2017-10-26T20:07:55.471Z,111.23
2017-10-26T20:10:22.967Z,79.07
2017-10-26T20:12:50.474Z,131.00
2017-10-26T20:15:17.957Z,60.27
2017-10-26T20:17:45.482Z,92.27
2017-10-26T20:20:13.758Z,78.13
2017-10-26T20:22:42.022Z,80.30
2017-10-26T20:25:09.523Z,98.33
2017-10-26T20:27:37.072Z,91.50
2017-10-26T20:30:04.553Z,77.60
2017-10-26T20:32:32.040Z,78.43
2017-10-26T20:34:59.628Z,66.97
2017-10-26T20:37:27.908Z,48.90
2017-10-26T20:39:56.184Z,58.20
2017-10-26T20:42:24.444Z,60.37
2017-10-26T20:44:51.931Z,45.60
2017-10-26T20:47:19.471Z,65.47
2017-10-26T20:49:53.488Z,54.87
2017-10-26T20:52:27.583Z,76.27
2017-10-26T20:55:00.745Z,73.53
2017-10-26T21:11:13.406Z,74.13
2017-10-26T21:13:46.583Z,66.73
2017-10-26T21:16:14.858Z,55.93
2017-10-26T21:18:43.108Z,81.87
2017-10-26T21:21:10.594Z,71.10
2017-10-26T21:23:38.869Z,69.83
2017-10-26T21:26:08.078Z,99.87
2017-10-26T21:28:36.340Z,179.80
2017-10-26T21:31:04.601Z,90.50
2017-10-26T21:33:37.985Z,98.23
2017-10-26T21:36:05.515Z,128.03
2017-10-26T21:38:32.999Z,99.30
2017-10-26T21:41:00.496Z,68.13
2017-10-26T21:43:28.783Z,100.70
2017-10-26T21:45:57.031Z,95.50
2017-10-26T21:48:24.516Z,62.50
2017-10-26T21:50:52.015Z,60.60
2017-10-26T21:53:19.503Z,59.23
2017-10-26T21:55:46.983Z,49.60
2017-10-26T21:58:16.347Z,50.97
2017-10-26T22:00:44.177Z,44.20
2017-10-26T22:03:11.950Z,46.87
2017-10-26T22:05:39.864Z,48.70
2017-10-26T22:08:09.317Z,43.43
2017-10-26T22:10:37.115Z,41.80
2017-10-26T22:13:04.947Z,51.73
2017-10-26T22:15:32.733Z,51.90
2017-10-26T22:18:00.331Z,43.97
2017-10-26T22:20:27.854Z,43.40
2017-10-26T22:22:55.594Z,41.40
2017-10-26T22:25:23.124Z,38.57
2017-10-26T22:27:51.386Z,37.17
2017-10-26T22:30:18.876Z,38.20
2017-10-26T22:32:46.379Z,31.40
2017-10-26T22:35:13.872Z,30.30
2017-10-26T22:37:42.128Z,29.20
2017-10-26T22:40:11.018Z,30.17
2017-10-26T22:42:38.528Z,30.97
2017-10-26T22:45:06.011Z,33.80
2017-10-26T22:47:33.548Z,31.20
2017-10-26T22:50:01.051Z,27.20
2017-10-26T22:52:29.357Z,31.23
2017-10-26T22:54:57.607Z,31.20
2017-10-26T22:57:25.113Z,30.27
2017-10-26T22:59:52.595Z,31.80
2017-10-26T23:02:20.103Z,27.90
2017-10-26T23:04:48.484Z,29.80
2017-10-26T23:07:16.738Z,31.03
2017-10-26T23:09:45.749Z,29.50
2017-10-26T23:12:14.027Z,28.27
2017-10-26T23:14:42.301Z,31.30
2017-10-26T23:17:11.466Z,28.27
2017-10-26T23:19:38.963Z,27.20
2017-10-26T23:22:07.267Z,33.20
2017-10-26T23:24:34.799Z,30.47
2017-10-26T23:27:03.070Z,25.77
2017-10-26T23:29:31.317Z,21.43
2017-10-26T23:31:58.807Z,21.77
2017-10-26T23:34:27.069Z,21.13
2017-10-26T23:36:54.559Z,19.83
2017-10-26T23:39:22.044Z,26.57
2017-10-26T23:41:49.546Z,24.80
2017-10-26T23:44:17.794Z,22.20
2017-10-26T23:46:45.278Z,22.60
2017-10-26T23:49:12.773Z,22.67
2017-10-26T23:51:40.265Z,22.03
2017-10-26T23:54:07.771Z,25.43
2017-10-26T23:56:36.036Z,24.10
2017-10-26T23:59:04.301Z,21.50
